Barkley Observed Data For Previous 48 Hours

Caption
Day and Hour Reservoir Elevation (behind dam)* Tailwater Elevation (below dam)* Average Hourly Discharge*
6/20/2018 1 AM CDT 359.15 305.75 8,700
6/20/2018 2 AM CDT 359.15 305.55 8,700
6/20/2018 3 AM CDT 359.15 305.35 8,700
6/20/2018 4 AM CDT 359.15 305.15 8,700
6/20/2018 5 AM CDT 359.15 305.05 8,600
6/20/2018 6 AM CDT 359.15 304.95 8,600
6/20/2018 7 AM CDT 359.05 304.55 8,600
6/20/2018 8 AM CDT 359.05 304.55 8,600
6/20/2018 9 AM CDT 359.00 304.50 8,600
6/20/2018 10 AM CDT 358.95 304.35 8,600
6/20/2018 11 AM CDT 358.95 304.25 8,600
6/20/2018 12 PM CDT 358.95 305.15 17,400
6/20/2018 1 PM CDT 359.00 305.30 17,400
6/20/2018 2 PM CDT 359.00 306.70 26,700
6/20/2018 3 PM CDT 359.00 307.30 27,000
6/20/2018 4 PM CDT 358.95 307.65 27,300
6/20/2018 5 PM CDT 358.95 307.75 27,300
6/20/2018 6 PM CDT 358.95 307.95 27,300
6/20/2018 7 PM CDT 358.95 308.05 27,300
6/20/2018 8 PM CDT 359.00 307.00 18,000
6/20/2018 9 PM CDT 359.00 305.50 8,700
6/20/2018 10 PM CDT 359.05 305.05 8,700
6/20/2018 11 PM CDT 359.05 304.85 8,600
6/21/2018 12 AM CDT 359.05 304.75 8,600
6/21/2018 1 AM CDT 359.10 304.60 8,600
6/21/2018 2 AM CDT 359.10 304.50 8,600
6/21/2018 3 AM CDT 359.10 304.40 8,600
6/21/2018 4 AM CDT 359.15 304.25 8,500
6/21/2018 5 AM CDT 359.15 304.35 8,500
6/21/2018 6 AM CDT 359.20 304.40 8,500
6/21/2018 7 AM CDT 359.15 304.35 8,500
6/21/2018 8 AM CDT 359.15 303.95 8,500
6/21/2018 9 AM CDT 359.15 303.95 8,500
6/21/2018 10 AM CDT 359.10 303.90 8,500
6/21/2018 11 AM CDT 359.10 303.80 8,400
6/21/2018 12 PM CDT 359.00 303.80 8,500
6/21/2018 1 PM CDT 359.05 304.75 17,200
6/21/2018 2 PM CDT 359.05 306.85 26,700
6/21/2018 3 PM CDT 359.00 306.90 26,700
6/21/2018 4 PM CDT 359.00 307.10 27,000
6/21/2018 5 PM CDT 359.00 307.20 27,000
6/21/2018 6 PM CDT 358.95 307.45 27,000
6/21/2018 7 PM CDT - 999.00 - 999.00 27,000
6/21/2018 8 PM CDT - 999.00 - 999.00 17,800
6/21/2018 9 PM CDT 359.05 306.05 17,600
6/21/2018 10 PM CDT 359.10 304.70 8,600
6/21/2018 11 PM CDT 359.10 304.10 8,500
6/22/2018 12 AM CDT 359.10 304.00 8,500

Elevations are in feet above sea level. Discharges are in cubic feet per second and are reported at the end of the hour.